createdAt,value
2022-11-13T00:04:20.712Z,100
2022-11-13T00:09:22.496Z,100
2022-11-13T00:14:24.617Z,100
2022-11-13T00:19:26.409Z,100
2022-11-13T00:24:28.402Z,100
2022-11-13T00:29:30.473Z,100
2022-11-13T00:34:47.258Z,100
2022-11-13T00:39:50.056Z,100
2022-11-13T00:44:52.338Z,100
2022-11-13T00:49:53.983Z,100
2022-11-13T00:54:55.827Z,100
2022-11-13T00:59:57.830Z,100
2022-11-13T01:04:59.699Z,100
2022-11-13T01:10:01.825Z,100
2022-11-13T01:15:03.884Z,100
2022-11-13T01:20:05.676Z,100
2022-11-13T01:25:12.176Z,100
2022-11-13T01:30:13.730Z,100
2022-11-13T01:35:15.284Z,100
2022-11-13T01:40:16.824Z,100
2022-11-13T01:45:19.239Z,100
2022-11-13T01:50:20.719Z,100
2022-11-13T01:55:22.234Z,100
2022-11-13T02:00:23.987Z,100
2022-11-13T02:05:25.524Z,100
2022-11-13T02:10:27.332Z,100
2022-11-13T02:15:29.475Z,100
2022-11-13T02:20:31.477Z,100
2022-11-13T02:25:33.474Z,100
2022-11-13T02:30:35.648Z,100
2022-11-13T02:35:37.586Z,100
2022-11-13T02:40:39.487Z,100
2022-11-13T02:45:42.411Z,100
2022-11-13T02:50:44.204Z,100
2022-11-13T02:55:46.121Z,100
2022-11-13T03:00:47.931Z,100
2022-11-13T03:05:49.660Z,100
2022-11-13T03:10:51.389Z,100
2022-11-13T03:15:53.835Z,100
2022-11-13T03:20:55.852Z,100
2022-11-13T03:25:57.952Z,100
2022-11-13T03:30:59.855Z,100
2022-11-13T03:36:01.646Z,100
2022-11-13T03:41:03.522Z,100
2022-11-13T03:46:05.277Z,100
2022-11-13T03:51:07.062Z,100
2022-11-13T03:56:08.597Z,100
2022-11-13T04:01:10.134Z,100
2022-11-13T04:06:11.594Z,100
2022-11-13T04:11:13.194Z,100
2022-11-13T04:16:15.004Z,100
2022-11-13T04:21:16.635Z,100
2022-11-13T04:26:18.229Z,100
2022-11-13T04:31:19.996Z,100
2022-11-13T04:36:21.544Z,100
2022-11-13T04:41:23.163Z,100
2022-11-13T04:46:25.045Z,100
2022-11-13T04:51:26.575Z,100
2022-11-13T04:56:28.341Z,100
2022-11-13T05:01:30.203Z,100
2022-11-13T05:06:32.188Z,100
2022-11-13T05:11:34.341Z,100
2022-11-13T05:16:36.536Z,100
2022-11-13T05:21:38.446Z,100
2022-11-13T05:26:40.484Z,100
2022-11-13T05:31:42.487Z,100
2022-11-13T05:36:44.267Z,100
2022-11-13T05:41:45.753Z,100
2022-11-13T05:46:47.787Z,100
2022-11-13T05:51:49.664Z,100
2022-11-13T05:56:51.210Z,100
2022-11-13T06:01:52.878Z,100
2022-11-13T06:06:54.549Z,100
2022-11-13T06:11:56.062Z,100
2022-11-13T06:16:57.857Z,100
2022-11-13T06:21:59.842Z,100
2022-11-13T06:27:01.608Z,100
2022-11-13T06:32:03.655Z,100
2022-11-13T06:37:05.421Z,100
2022-11-13T06:42:07.217Z,100
2022-11-13T06:47:09.321Z,100
2022-11-13T06:52:10.796Z,100
2022-11-13T06:57:12.272Z,100
2022-11-13T07:02:14.053Z,100
2022-11-13T07:07:16.362Z,100
2022-11-13T07:12:18.002Z,100
2022-11-13T07:17:19.907Z,100
2022-11-13T07:22:21.720Z,100
2022-11-13T07:27:23.439Z,100
2022-11-13T07:32:25.224Z,100
2022-11-13T07:37:27.006Z,100
2022-11-13T07:42:28.802Z,100
2022-11-13T07:47:30.874Z,100
2022-11-13T07:52:32.859Z,100
2022-11-13T07:57:34.752Z,100
2022-11-13T08:02:36.702Z,100
2022-11-13T08:07:38.526Z,100
2022-11-13T08:12:40.343Z,100
2022-11-13T08:17:42.179Z,100
2022-11-13T08:22:44.055Z,100
2022-11-13T08:27:45.875Z,100
2022-11-13T08:32:47.987Z,100
2022-11-13T08:37:49.452Z,100
2022-11-13T08:42:51.515Z,100
2022-11-13T08:47:53.395Z,100
2022-11-13T08:52:55.217Z,100
2022-11-13T08:57:56.990Z,100
2022-11-13T09:02:58.929Z,100
2022-11-13T09:08:00.903Z,93.77717
2022-11-13T09:13:02.370Z,100
2022-11-13T09:18:04.358Z,100
2022-11-13T09:23:06.282Z,100
2022-11-13T09:28:08.283Z,100
2022-11-13T09:33:10.357Z,100
2022-11-13T09:38:11.948Z,98.28519
2022-11-13T09:43:13.461Z,97.74728
2022-11-13T09:48:15.693Z,94.81437
2022-11-13T09:53:17.558Z,93.18401
2022-11-13T09:58:19.120Z,98.02206
2022-11-13T10:03:46.179Z,97.78097
2022-11-13T10:09:01.917Z,93.05093
2022-11-13T10:14:03.775Z,84.1816
2022-11-13T10:19:05.970Z,86.94999
2022-11-13T10:24:10.486Z,84.90636
2022-11-13T10:29:15.802Z,91.19278
2022-11-13T10:34:17.760Z,94.09114
2022-11-13T10:39:19.749Z,97.52894
2022-11-13T10:44:23.925Z,99.73761
2022-11-13T10:49:25.755Z,100
2022-11-13T10:54:27.489Z,100
2022-11-13T10:59:29.297Z,96.08518
2022-11-13T11:04:31.197Z,98.17709
2022-11-13T11:09:33.033Z,94.82219
2022-11-13T11:14:34.721Z,100
2022-11-13T11:19:36.611Z,98.72341
2022-11-13T11:24:38.393Z,100
2022-11-13T11:29:40.538Z,89.79258
2022-11-13T11:34:42.385Z,91.85735
2022-11-13T11:39:44.306Z,85.38014
2022-11-13T11:44:46.538Z,85.51869
2022-11-13T11:49:48.676Z,88.96469
2022-11-13T11:54:50.802Z,89.30721
2022-11-13T11:59:52.697Z,85.96652
2022-11-13T12:04:55.057Z,79.37527
2022-11-13T12:09:57.006Z,78.16481
2022-11-13T12:14:58.912Z,77.97959
2022-11-13T12:20:01.107Z,82.07844
2022-11-13T12:25:02.881Z,83.0417
2022-11-13T12:30:04.710Z,78.02992
2022-11-13T12:35:06.737Z,80.83525
2022-11-13T12:40:08.892Z,81.62396
2022-11-13T12:45:10.816Z,74.3731
2022-11-13T12:50:12.783Z,75.53883
2022-11-13T12:55:14.219Z,76.74538
2022-11-13T13:00:15.881Z,75.43494
2022-11-13T13:05:17.792Z,73.59061
2022-11-13T13:10:19.339Z,74.03933
2022-11-13T13:15:20.925Z,75.53131
2022-11-13T13:20:22.948Z,70.84828
2022-11-13T13:25:24.814Z,71.83336
2022-11-13T13:30:26.567Z,68.43996
2022-11-13T13:35:28.426Z,72.28713
2022-11-13T13:40:31.712Z,70.26218
2022-11-13T13:45:33.209Z,70.91575
2022-11-13T13:50:35.367Z,69.25795
2022-11-13T13:55:37.032Z,75.66486
2022-11-13T14:01:05.256Z,72.25892
2022-11-13T14:06:18.864Z,73.88373
2022-11-13T14:11:20.667Z,74.19614
2022-11-13T14:16:22.531Z,79.30113
2022-11-13T14:21:25.092Z,80.78033
2022-11-13T14:26:26.659Z,86.23872
2022-11-13T14:31:28.365Z,82.21311
2022-11-13T14:36:30.208Z,83.61648
2022-11-13T14:41:32.027Z,83.16413
2022-11-13T14:46:33.809Z,84.89741
2022-11-13T14:51:35.846Z,84.15877
2022-11-13T14:56:37.451Z,85.93288
2022-11-13T15:01:39.461Z,88.649
2022-11-13T15:06:41.509Z,90.61798
2022-11-13T15:11:43.520Z,89.99696
2022-11-13T15:16:45.321Z,95.63903
2022-11-13T15:22:20.316Z,92.18857
2022-11-13T15:27:28.396Z,97.74875
2022-11-13T15:32:29.914Z,99.55304
2022-11-13T15:37:31.818Z,100
2022-11-13T15:42:34.779Z,95.67891
2022-11-13T15:47:36.900Z,97.1191
2022-11-13T15:52:38.588Z,98.4257
2022-11-13T15:57:40.621Z,96.88233
2022-11-13T16:02:42.594Z,100
2022-11-13T16:07:45.860Z,99.77856
2022-11-13T16:12:47.759Z,96.53643
2022-11-13T16:17:49.658Z,97.67159
2022-11-13T16:22:51.807Z,100
2022-11-13T16:27:53.846Z,100
2022-11-13T16:32:56.315Z,100
2022-11-13T16:37:58.382Z,100
2022-11-13T16:43:00.150Z,100
2022-11-13T16:48:01.940Z,100
2022-11-13T16:53:06.884Z,100
2022-11-13T16:58:10.042Z,100
2022-11-13T17:03:11.844Z,100
2022-11-13T17:08:13.481Z,100
2022-11-13T17:13:15.013Z,100
2022-11-13T17:18:16.735Z,100
2022-11-13T17:23:18.619Z,100
2022-11-13T17:28:20.148Z,100
2022-11-13T17:33:23.163Z,100
2022-11-13T17:38:24.963Z,100
2022-11-13T17:43:27.415Z,100
2022-11-13T17:48:29.813Z,100
2022-11-13T17:53:32.109Z,100
2022-11-13T17:58:33.795Z,100
2022-11-13T18:03:35.756Z,100
2022-11-13T18:08:37.484Z,100
2022-11-13T18:13:39.306Z,100
2022-11-13T18:18:41.386Z,100
2022-11-13T18:23:43.378Z,100
2022-11-13T18:28:45.044Z,100
2022-11-13T18:33:46.775Z,100
2022-11-13T18:38:48.888Z,100
2022-11-13T18:43:50.543Z,100
2022-11-13T18:48:52.368Z,100
2022-11-13T18:53:54.108Z,100
2022-11-13T18:58:56.221Z,100
2022-11-13T19:04:21.877Z,100
2022-11-13T19:09:26.470Z,100
2022-11-13T19:14:28.109Z,100
2022-11-13T19:19:29.695Z,100
2022-11-13T19:24:31.671Z,100
2022-11-13T19:29:33.420Z,100
2022-11-13T19:34:35.066Z,100
2022-11-13T19:39:37.614Z,100
2022-11-13T19:44:39.795Z,100
2022-11-13T19:49:41.692Z,100
2022-11-13T19:54:43.646Z,100
2022-11-13T19:59:45.864Z,100
2022-11-13T20:04:47.643Z,100
2022-11-13T20:09:51.344Z,100
2022-11-13T20:14:53.170Z,100
2022-11-13T20:19:55.160Z,100
2022-11-13T20:24:58.500Z,100
2022-11-13T20:30:00.432Z,100
2022-11-13T20:35:02.303Z,100
2022-11-13T20:40:04.092Z,100
2022-11-13T20:45:11.195Z,100
2022-11-13T20:50:13.138Z,100
2022-11-13T20:55:15.234Z,100
2022-11-13T21:00:16.724Z,100
2022-11-13T21:05:18.156Z,100
2022-11-13T21:10:19.808Z,100
2022-11-13T21:15:21.734Z,100
2022-11-13T21:20:23.294Z,100
2022-11-13T21:25:25.527Z,100
2022-11-13T21:30:27.519Z,100
2022-11-13T21:35:30.126Z,100
2022-11-13T21:40:32.050Z,100
2022-11-13T21:45:33.766Z,100
2022-11-13T21:50:36.304Z,100
2022-11-13T21:55:38.361Z,100
2022-11-13T22:00:40.287Z,100
2022-11-13T22:05:42.437Z,100
2022-11-13T22:10:44.200Z,100
2022-11-13T22:15:46.195Z,100
2022-11-13T22:20:48.070Z,100
2022-11-13T22:25:54.542Z,100
2022-11-13T22:30:58.953Z,100
2022-11-13T22:36:00.800Z,100
2022-11-13T22:41:02.737Z,100
2022-11-13T22:46:04.584Z,100
2022-11-13T22:51:06.665Z,100
2022-11-13T22:56:09.687Z,100
2022-11-13T23:01:12.090Z,100
2022-11-13T23:06:14.061Z,100
2022-11-13T23:11:15.813Z,100
2022-11-13T23:16:17.349Z,100
2022-11-13T23:21:19.016Z,100
2022-11-13T23:26:20.880Z,100
2022-11-13T23:31:22.383Z,100
2022-11-13T23:36:24.063Z,100
2022-11-13T23:41:25.779Z,100
2022-11-13T23:46:27.248Z,100
2022-11-13T23:51:28.743Z,100
2022-11-13T23:56:30.773Z,100
